sensor_id;sensor_type;location;lat;lon;timestamp;temperature;humidity
65374;SHT31;52070;53.760;9.678;2023-07-09T00:01:48;18.19;71.01
65374;SHT31;52070;53.760;9.678;2023-07-09T00:04:16;18.16;70.77
65374;SHT31;52070;53.760;9.678;2023-07-09T00:06:44;18.13;71.04
65374;SHT31;52070;53.760;9.678;2023-07-09T00:09:14;18.10;71.00
65374;SHT31;52070;53.760;9.678;2023-07-09T00:11:42;18.06;71.04
65374;SHT31;52070;53.760;9.678;2023-07-09T00:14:09;18.08;71.02
65374;SHT31;52070;53.760;9.678;2023-07-09T00:16:38;18.06;70.99
65374;SHT31;52070;53.760;9.678;2023-07-09T00:19:11;18.02;71.41
65374;SHT31;52070;53.760;9.678;2023-07-09T00:21:39;18.08;70.96
65374;SHT31;52070;53.760;9.678;2023-07-09T00:24:06;18.03;71.09
65374;SHT31;52070;53.760;9.678;2023-07-09T00:26:38;17.98;71.07
65374;SHT31;52070;53.760;9.678;2023-07-09T00:29:08;17.96;71.17
65374;SHT31;52070;53.760;9.678;2023-07-09T00:31:36;17.94;71.29
65374;SHT31;52070;53.760;9.678;2023-07-09T00:34:04;17.89;71.23
65374;SHT31;52070;53.760;9.678;2023-07-09T00:36:31;17.85;71.23
65374;SHT31;52070;53.760;9.678;2023-07-09T00:38:58;17.84;71.58
65374;SHT31;52070;53.760;9.678;2023-07-09T00:41:32;17.88;71.18
65374;SHT31;52070;53.760;9.678;2023-07-09T00:44:21;17.82;71.49
65374;SHT31;52070;53.760;9.678;2023-07-09T00:47:22;17.72;71.59
65374;SHT31;52070;53.760;9.678;2023-07-09T00:49:59;17.67;71.71
65374;SHT31;52070;53.760;9.678;2023-07-09T00:52:33;17.60;71.95
65374;SHT31;52070;53.760;9.678;2023-07-09T00:55:05;17.54;71.97
65374;SHT31;52070;53.760;9.678;2023-07-09T00:57:34;17.50;72.14
65374;SHT31;52070;53.760;9.678;2023-07-09T01:00:09;17.51;72.11
65374;SHT31;52070;53.760;9.678;2023-07-09T01:02:43;17.50;72.40
65374;SHT31;52070;53.760;9.678;2023-07-09T01:05:14;17.42;72.69
65374;SHT31;52070;53.760;9.678;2023-07-09T01:07:43;17.41;72.70
65374;SHT31;52070;53.760;9.678;2023-07-09T01:10:11;17.34;72.98
65374;SHT31;52070;53.760;9.678;2023-07-09T01:12:39;17.34;72.94
65374;SHT31;52070;53.760;9.678;2023-07-09T01:15:09;17.27;73.30
65374;SHT31;52070;53.760;9.678;2023-07-09T01:17:37;17.23;73.30
65374;SHT31;52070;53.760;9.678;2023-07-09T01:20:07;17.26;73.05
65374;SHT31;52070;53.760;9.678;2023-07-09T01:22:35;17.17;73.25
65374;SHT31;52070;53.760;9.678;2023-07-09T01:25:05;17.16;73.38
65374;SHT31;52070;53.760;9.678;2023-07-09T01:27:34;17.14;73.38
65374;SHT31;52070;53.760;9.678;2023-07-09T01:30:06;17.11;73.39
65374;SHT31;52070;53.760;9.678;2023-07-09T01:32:33;17.10;73.51
65374;SHT31;52070;53.760;9.678;2023-07-09T01:35:03;17.10;73.39
65374;SHT31;52070;53.760;9.678;2023-07-09T01:37:34;17.04;73.12
65374;SHT31;52070;53.760;9.678;2023-07-09T01:40:04;17.02;73.01
65374;SHT31;52070;53.760;9.678;2023-07-09T01:42:32;17.02;73.66
65374;SHT31;52070;53.760;9.678;2023-07-09T01:44:59;17.00;73.43
65374;SHT31;52070;53.760;9.678;2023-07-09T01:47:27;17.03;73.13
65374;SHT31;52070;53.760;9.678;2023-07-09T01:49:54;17.00;73.17
65374;SHT31;52070;53.760;9.678;2023-07-09T01:52:24;17.00;73.17
65374;SHT31;52070;53.760;9.678;2023-07-09T01:54:53;16.97;73.31
65374;SHT31;52070;53.760;9.678;2023-07-09T01:57:23;16.94;73.28
65374;SHT31;52070;53.760;9.678;2023-07-09T01:59:51;16.93;73.24
65374;SHT31;52070;53.760;9.678;2023-07-09T02:02:18;16.93;73.18
65374;SHT31;52070;53.760;9.678;2023-07-09T02:04:46;16.90;73.11
65374;SHT31;52070;53.760;9.678;2023-07-09T02:07:14;16.97;72.50
65374;SHT31;52070;53.760;9.678;2023-07-09T02:09:41;16.97;72.62
65374;SHT31;52070;53.760;9.678;2023-07-09T02:12:09;16.91;72.79
65374;SHT31;52070;53.760;9.678;2023-07-09T02:14:39;16.86;72.89
65374;SHT31;52070;53.760;9.678;2023-07-09T02:17:06;16.86;72.57
65374;SHT31;52070;53.760;9.678;2023-07-09T02:19:34;16.80;72.64
65374;SHT31;52070;53.760;9.678;2023-07-09T02:22:01;16.79;72.35
65374;SHT31;52070;53.760;9.678;2023-07-09T02:24:28;16.73;72.21
65374;SHT31;52070;53.760;9.678;2023-07-09T02:26:55;16.73;72.33
65374;SHT31;52070;53.760;9.678;2023-07-09T02:29:23;16.67;72.35
65374;SHT31;52070;53.760;9.678;2023-07-09T02:31:52;16.63;72.85
65374;SHT31;52070;53.760;9.678;2023-07-09T02:34:20;16.62;73.12
65374;SHT31;52070;53.760;9.678;2023-07-09T02:36:51;16.62;73.41
65374;SHT31;52070;53.760;9.678;2023-07-09T02:39:18;16.60;73.25
65374;SHT31;52070;53.760;9.678;2023-07-09T02:41:46;16.56;73.18
65374;SHT31;52070;53.760;9.678;2023-07-09T02:44:13;16.56;73.05
65374;SHT31;52070;53.760;9.678;2023-07-09T02:46:40;16.53;73.24
65374;SHT31;52070;53.760;9.678;2023-07-09T02:49:11;16.48;73.47
65374;SHT31;52070;53.760;9.678;2023-07-09T02:51:39;16.46;73.41
65374;SHT31;52070;53.760;9.678;2023-07-09T02:54:06;16.41;73.57
65374;SHT31;52070;53.760;9.678;2023-07-09T02:56:33;16.39;73.85
65374;SHT31;52070;53.760;9.678;2023-07-09T02:59:00;16.36;73.68
65374;SHT31;52070;53.760;9.678;2023-07-09T03:01:27;16.32;73.46
65374;SHT31;52070;53.760;9.678;2023-07-09T03:03:55;16.32;73.63
65374;SHT31;52070;53.760;9.678;2023-07-09T03:06:24;16.30;73.80
65374;SHT31;52070;53.760;9.678;2023-07-09T03:08:51;16.26;73.52
65374;SHT31;52070;53.760;9.678;2023-07-09T03:11:19;16.24;73.70
65374;SHT31;52070;53.760;9.678;2023-07-09T03:13:47;16.25;73.46
65374;SHT31;52070;53.760;9.678;2023-07-09T03:16:15;16.26;73.75
65374;SHT31;52070;53.760;9.678;2023-07-09T03:18:44;16.24;73.86
65374;SHT31;52070;53.760;9.678;2023-07-09T03:21:11;16.18;73.76
65374;SHT31;52070;53.760;9.678;2023-07-09T03:23:40;16.18;73.70
65374;SHT31;52070;53.760;9.678;2023-07-09T03:26:07;16.15;73.91
65374;SHT31;52070;53.760;9.678;2023-07-09T03:28:34;16.12;73.82
65374;SHT31;52070;53.760;9.678;2023-07-09T03:31:01;16.12;73.49
65374;SHT31;52070;53.760;9.678;2023-07-09T03:33:28;16.11;73.39
65374;SHT31;52070;53.760;9.678;2023-07-09T03:35:55;16.11;73.35
65374;SHT31;52070;53.760;9.678;2023-07-09T03:38:22;16.11;73.38
65374;SHT31;52070;53.760;9.678;2023-07-09T03:40:52;16.11;73.52
65374;SHT31;52070;53.760;9.678;2023-07-09T03:43:19;16.14;74.04
65374;SHT31;52070;53.760;9.678;2023-07-09T03:45:47;16.16;74.20
65374;SHT31;52070;53.760;9.678;2023-07-09T03:48:15;16.16;74.38
65374;SHT31;52070;53.760;9.678;2023-07-09T03:50:44;16.12;74.53
65374;SHT31;52070;53.760;9.678;2023-07-09T03:53:12;16.14;74.41
65374;SHT31;52070;53.760;9.678;2023-07-09T03:55:39;16.16;74.22
65374;SHT31;52070;53.760;9.678;2023-07-09T03:58:10;16.15;74.57
65374;SHT31;52070;53.760;9.678;2023-07-09T04:00:36;16.21;74.62
65374;SHT31;52070;53.760;9.678;2023-07-09T04:03:03;16.16;74.20
65374;SHT31;52070;53.760;9.678;2023-07-09T04:05:34;16.16;74.31
65374;SHT31;52070;53.760;9.678;2023-07-09T04:08:01;16.14;74.11
65374;SHT31;52070;53.760;9.678;2023-07-09T04:10:28;16.15;73.94
65374;SHT31;52070;53.760;9.678;2023-07-09T04:12:55;16.14;74.17
65374;SHT31;52070;53.760;9.678;2023-07-09T04:15:23;16.14;73.54
65374;SHT31;52070;53.760;9.678;2023-07-09T04:17:50;16.12;73.42
65374;SHT31;52070;53.760;9.678;2023-07-09T04:20:18;16.18;74.04
65374;SHT31;52070;53.760;9.678;2023-07-09T04:22:45;16.18;74.44
65374;SHT31;52070;53.760;9.678;2023-07-09T04:25:12;16.21;74.47
65374;SHT31;52070;53.760;9.678;2023-07-09T04:27:40;16.24;74.18
65374;SHT31;52070;53.760;9.678;2023-07-09T04:30:09;16.29;73.93
65374;SHT31;52070;53.760;9.678;2023-07-09T04:32:38;16.32;73.60
65374;SHT31;52070;53.760;9.678;2023-07-09T04:35:05;16.32;73.64
65374;SHT31;52070;53.760;9.678;2023-07-09T04:37:33;16.35;73.65
65374;SHT31;52070;53.760;9.678;2023-07-09T04:40:00;16.36;74.05
65374;SHT31;52070;53.760;9.678;2023-07-09T04:42:27;16.38;74.29
65374;SHT31;52070;53.760;9.678;2023-07-09T04:44:54;16.44;73.85
65374;SHT31;52070;53.760;9.678;2023-07-09T04:47:21;16.51;73.61
65374;SHT31;52070;53.760;9.678;2023-07-09T04:49:49;16.60;73.21
65374;SHT31;52070;53.760;9.678;2023-07-09T04:52:16;16.65;73.23
65374;SHT31;52070;53.760;9.678;2023-07-09T04:54:43;16.80;72.12
65374;SHT31;52070;53.760;9.678;2023-07-09T04:57:10;16.91;71.85
65374;SHT31;52070;53.760;9.678;2023-07-09T04:59:38;17.06;71.24
65374;SHT31;52070;53.760;9.678;2023-07-09T05:02:06;17.14;71.55
65374;SHT31;52070;53.760;9.678;2023-07-09T05:04:33;17.21;71.73
65374;SHT31;52070;53.760;9.678;2023-07-09T05:07:01;17.38;69.42
65374;SHT31;52070;53.760;9.678;2023-07-09T05:09:28;17.45;69.20
65374;SHT31;52070;53.760;9.678;2023-07-09T05:11:55;17.50;68.62
65374;SHT31;52070;53.760;9.678;2023-07-09T05:14:22;17.58;69.66
65374;SHT31;52070;53.760;9.678;2023-07-09T05:16:49;17.60;68.99
65374;SHT31;52070;53.760;9.678;2023-07-09T05:19:16;17.65;68.81
65374;SHT31;52070;53.760;9.678;2023-07-09T05:21:43;17.72;69.76
65374;SHT31;52070;53.760;9.678;2023-07-09T05:24:11;17.92;67.06
65374;SHT31;52070;53.760;9.678;2023-07-09T05:26:38;18.03;67.84
65374;SHT31;52070;53.760;9.678;2023-07-09T05:29:05;18.17;66.67
65374;SHT31;52070;53.760;9.678;2023-07-09T05:31:32;18.23;66.94
65374;SHT31;52070;53.760;9.678;2023-07-09T05:33:59;18.32;67.09
65374;SHT31;52070;53.760;9.678;2023-07-09T05:36:27;18.35;66.34
65374;SHT31;52070;53.760;9.678;2023-07-09T05:38:55;18.47;66.30
65374;SHT31;52070;53.760;9.678;2023-07-09T05:41:23;18.61;65.87
65374;SHT31;52070;53.760;9.678;2023-07-09T05:43:51;18.70;67.28
65374;SHT31;52070;53.760;9.678;2023-07-09T05:46:19;18.77;66.07
65374;SHT31;52070;53.760;9.678;2023-07-09T05:48:46;18.80;66.51
65374;SHT31;52070;53.760;9.678;2023-07-09T05:51:13;18.93;65.24
65374;SHT31;52070;53.760;9.678;2023-07-09T05:53:40;19.07;65.58
65374;SHT31;52070;53.760;9.678;2023-07-09T05:56:07;19.18;64.08
65374;SHT31;52070;53.760;9.678;2023-07-09T05:58:36;19.36;63.67
65374;SHT31;52070;53.760;9.678;2023-07-09T06:01:03;19.38;63.83
65374;SHT31;52070;53.760;9.678;2023-07-09T06:03:30;19.44;64.22
65374;SHT31;52070;53.760;9.678;2023-07-09T06:05:59;19.55;64.84
65374;SHT31;52070;53.760;9.678;2023-07-09T06:08:26;19.58;65.11
65374;SHT31;52070;53.760;9.678;2023-07-09T06:10:54;19.66;65.24
65374;SHT31;52070;53.760;9.678;2023-07-09T06:13:22;19.73;64.75
65374;SHT31;52070;53.760;9.678;2023-07-09T06:15:51;19.81;64.34
65374;SHT31;52070;53.760;9.678;2023-07-09T06:18:19;19.90;64.51
65374;SHT31;52070;53.760;9.678;2023-07-09T06:20:48;19.99;64.52
65374;SHT31;52070;53.760;9.678;2023-07-09T06:23:15;20.06;63.87
65374;SHT31;52070;53.760;9.678;2023-07-09T06:25:43;20.16;63.66
65374;SHT31;52070;53.760;9.678;2023-07-09T06:28:13;20.22;63.03
65374;SHT31;52070;53.760;9.678;2023-07-09T06:30:40;20.34;63.36
65374;SHT31;52070;53.760;9.678;2023-07-09T06:33:10;20.40;63.12
65374;SHT31;52070;53.760;9.678;2023-07-09T06:35:37;20.46;63.50
65374;SHT31;52070;53.760;9.678;2023-07-09T06:38:05;20.56;63.64
65374;SHT31;52070;53.760;9.678;2023-07-09T06:40:53;20.64;63.82
65374;SHT31;52070;53.760;9.678;2023-07-09T06:43:26;20.76;62.99
65374;SHT31;52070;53.760;9.678;2023-07-09T06:45:55;20.84;62.10
65374;SHT31;52070;53.760;9.678;2023-07-09T06:48:25;20.95;62.42
65374;SHT31;52070;53.760;9.678;2023-07-09T06:50:53;21.04;61.91
65374;SHT31;52070;53.760;9.678;2023-07-09T06:53:21;21.14;61.77
65374;SHT31;52070;53.760;9.678;2023-07-09T06:55:49;21.29;61.11
65374;SHT31;52070;53.760;9.678;2023-07-09T06:58:16;21.49;59.79
65374;SHT31;52070;53.760;9.678;2023-07-09T07:00:43;21.72;59.39
65374;SHT31;52070;53.760;9.678;2023-07-09T07:03:10;21.72;60.89
65374;SHT31;52070;53.760;9.678;2023-07-09T07:05:42;21.78;61.59
65374;SHT31;52070;53.760;9.678;2023-07-09T07:08:10;21.86;61.18
65374;SHT31;52070;53.760;9.678;2023-07-09T07:10:37;21.92;60.30
65374;SHT31;52070;53.760;9.678;2023-07-09T07:13:04;21.99;61.38
65374;SHT31;52070;53.760;9.678;2023-07-09T07:15:31;22.06;61.35
65374;SHT31;52070;53.760;9.678;2023-07-09T07:17:58;22.10;59.52
65374;SHT31;52070;53.760;9.678;2023-07-09T07:20:25;22.07;58.16
65374;SHT31;52070;53.760;9.678;2023-07-09T07:22:53;22.13;58.58
65374;SHT31;52070;53.760;9.678;2023-07-09T07:25:20;22.18;60.61
65374;SHT31;52070;53.760;9.678;2023-07-09T07:27:47;22.33;60.43
65374;SHT31;52070;53.760;9.678;2023-07-09T07:30:14;22.39;59.54
65374;SHT31;52070;53.760;9.678;2023-07-09T07:32:44;22.45;60.48
65374;SHT31;52070;53.760;9.678;2023-07-09T07:35:12;22.53;61.43
65374;SHT31;52070;53.760;9.678;2023-07-09T07:37:40;22.64;58.89
65374;SHT31;52070;53.760;9.678;2023-07-09T07:40:09;22.71;59.48
65374;SHT31;52070;53.760;9.678;2023-07-09T07:42:36;22.78;59.70
65374;SHT31;52070;53.760;9.678;2023-07-09T07:45:04;22.87;58.08
65374;SHT31;52070;53.760;9.678;2023-07-09T07:47:32;22.94;58.83
65374;SHT31;52070;53.760;9.678;2023-07-09T07:49:59;23.02;59.16
65374;SHT31;52070;53.760;9.678;2023-07-09T07:52:27;23.18;59.52
65374;SHT31;52070;53.760;9.678;2023-07-09T07:54:54;23.32;59.60
65374;SHT31;52070;53.760;9.678;2023-07-09T07:57:24;23.35;56.90
65374;SHT31;52070;53.760;9.678;2023-07-09T07:59:51;23.45;57.42
65374;SHT31;52070;53.760;9.678;2023-07-09T08:02:18;23.49;57.50
65374;SHT31;52070;53.760;9.678;2023-07-09T08:04:45;23.56;58.12
65374;SHT31;52070;53.760;9.678;2023-07-09T08:07:12;23.67;56.68
65374;SHT31;52070;53.760;9.678;2023-07-09T08:09:42;23.76;56.63
65374;SHT31;52070;53.760;9.678;2023-07-09T08:12:10;23.79;56.80
65374;SHT31;52070;53.760;9.678;2023-07-09T08:14:40;23.90;57.15
65374;SHT31;52070;53.760;9.678;2023-07-09T08:17:08;24.01;58.01
65374;SHT31;52070;53.760;9.678;2023-07-09T08:19:44;24.11;57.26
65374;SHT31;52070;53.760;9.678;2023-07-09T08:22:11;24.20;55.89
65374;SHT31;52070;53.760;9.678;2023-07-09T08:24:38;24.28;56.95
65374;SHT31;52070;53.760;9.678;2023-07-09T08:27:06;24.40;58.43
65374;SHT31;52070;53.760;9.678;2023-07-09T08:29:34;24.48;58.70
65374;SHT31;52070;53.760;9.678;2023-07-09T08:32:03;24.60;56.39
65374;SHT31;52070;53.760;9.678;2023-07-09T08:34:30;24.69;55.84
65374;SHT31;52070;53.760;9.678;2023-07-09T08:36:57;24.82;55.74
65374;SHT31;52070;53.760;9.678;2023-07-09T08:39:24;24.91;56.50
65374;SHT31;52070;53.760;9.678;2023-07-09T08:41:54;25.11;56.13
65374;SHT31;52070;53.760;9.678;2023-07-09T08:44:42;25.28;54.59
65374;SHT31;52070;53.760;9.678;2023-07-09T08:47:17;25.46;53.01
65374;SHT31;52070;53.760;9.678;2023-07-09T08:49:48;25.56;52.60
65374;SHT31;52070;53.760;9.678;2023-07-09T08:52:24;25.70;52.83
65374;SHT31;52070;53.760;9.678;2023-07-09T08:54:53;25.70;53.54
65374;SHT31;52070;53.760;9.678;2023-07-09T08:57:24;25.83;53.32
65374;SHT31;52070;53.760;9.678;2023-07-09T08:59:57;25.96;54.19
65374;SHT31;52070;53.760;9.678;2023-07-09T09:02:33;26.04;54.16
65374;SHT31;52070;53.760;9.678;2023-07-09T09:05:02;26.13;53.20
65374;SHT31;52070;53.760;9.678;2023-07-09T09:07:39;26.37;52.55
65374;SHT31;52070;53.760;9.678;2023-07-09T09:10:11;26.47;52.65
65374;SHT31;52070;53.760;9.678;2023-07-09T09:13:00;26.52;52.29
65374;SHT31;52070;53.760;9.678;2023-07-09T09:15:30;26.67;52.95
65374;SHT31;52070;53.760;9.678;2023-07-09T09:18:18;26.82;51.68
65374;SHT31;52070;53.760;9.678;2023-07-09T09:20:48;26.98;51.37
65374;SHT31;52070;53.760;9.678;2023-07-09T09:23:18;27.02;50.94
65374;SHT31;52070;53.760;9.678;2023-07-09T09:25:49;27.13;51.31
65374;SHT31;52070;53.760;9.678;2023-07-09T09:28:18;27.27;52.15
65374;SHT31;52070;53.760;9.678;2023-07-09T09:30:45;27.46;51.22
65374;SHT31;52070;53.760;9.678;2023-07-09T09:33:17;27.70;50.58
65374;SHT31;52070;53.760;9.678;2023-07-09T09:35:45;27.91;50.08
65374;SHT31;52070;53.760;9.678;2023-07-09T09:38:16;28.07;47.95
65374;SHT31;52070;53.760;9.678;2023-07-09T09:40:44;28.15;49.54
65374;SHT31;52070;53.760;9.678;2023-07-09T09:43:13;28.24;48.95
65374;SHT31;52070;53.760;9.678;2023-07-09T09:45:43;28.40;48.37
65374;SHT31;52070;53.760;9.678;2023-07-09T09:48:17;28.52;48.50
65374;SHT31;52070;53.760;9.678;2023-07-09T09:50:45;28.68;50.07
65374;SHT31;52070;53.760;9.678;2023-07-09T09:53:19;28.76;47.21
65374;SHT31;52070;53.760;9.678;2023-07-09T09:55:48;28.93;49.06
65374;SHT31;52070;53.760;9.678;2023-07-09T09:58:16;29.10;48.40
65374;SHT31;52070;53.760;9.678;2023-07-09T10:00:48;29.38;45.43
65374;SHT31;52070;53.760;9.678;2023-07-09T10:03:18;29.58;49.14
65374;SHT31;52070;53.760;9.678;2023-07-09T10:05:50;29.80;45.11
65374;SHT31;52070;53.760;9.678;2023-07-09T10:08:28;29.87;45.65
65374;SHT31;52070;53.760;9.678;2023-07-09T10:11:11;30.04;47.23
65374;SHT31;52070;53.760;9.678;2023-07-09T10:13:43;30.21;45.69
65374;SHT31;52070;53.760;9.678;2023-07-09T10:16:16;30.33;47.80
65374;SHT31;52070;53.760;9.678;2023-07-09T10:18:51;30.43;46.48
65374;SHT31;52070;53.760;9.678;2023-07-09T10:21:24;30.55;44.86
65374;SHT31;52070;53.760;9.678;2023-07-09T10:24:05;30.61;44.88
65374;SHT31;52070;53.760;9.678;2023-07-09T10:26:40;30.82;44.22
65374;SHT31;52070;53.760;9.678;2023-07-09T10:29:23;30.96;46.80
65374;SHT31;52070;53.760;9.678;2023-07-09T10:31:58;31.16;43.17
65374;SHT31;52070;53.760;9.678;2023-07-09T10:34:37;31.43;45.43
65374;SHT31;52070;53.760;9.678;2023-07-09T10:37:18;31.63;40.47
65374;SHT31;52070;53.760;9.678;2023-07-09T10:39:49;31.71;41.32
65374;SHT31;52070;53.760;9.678;2023-07-09T10:42:21;31.58;42.44
65374;SHT31;52070;53.760;9.678;2023-07-09T10:44:55;31.53;44.05
65374;SHT31;52070;53.760;9.678;2023-07-09T10:47:38;31.71;44.52
65374;SHT31;52070;53.760;9.678;2023-07-09T10:50:12;31.84;43.74
65374;SHT31;52070;53.760;9.678;2023-07-09T10:52:44;31.94;41.86
65374;SHT31;52070;53.760;9.678;2023-07-09T10:55:17;32.15;44.45
65374;SHT31;52070;53.760;9.678;2023-07-09T10:57:54;32.45;42.76
65374;SHT31;52070;53.760;9.678;2023-07-09T11:00:30;32.38;39.92
65374;SHT31;52070;53.760;9.678;2023-07-09T11:03:02;32.48;39.32
65374;SHT31;52070;53.760;9.678;2023-07-09T11:05:32;32.60;41.31
65374;SHT31;52070;53.760;9.678;2023-07-09T11:08:02;32.83;42.93
65374;SHT31;52070;53.760;9.678;2023-07-09T11:10:36;32.93;41.17
65374;SHT31;52070;53.760;9.678;2023-07-09T11:13:10;32.98;38.35
65374;SHT31;52070;53.760;9.678;2023-07-09T11:15:41;32.98;40.57
65374;SHT31;52070;53.760;9.678;2023-07-09T11:18:13;33.17;42.44
65374;SHT31;52070;53.760;9.678;2023-07-09T11:20:55;33.30;40.80
65374;SHT31;52070;53.760;9.678;2023-07-09T11:23:25;33.26;39.37
65374;SHT31;52070;53.760;9.678;2023-07-09T11:26:02;33.40;40.78
65374;SHT31;52070;53.760;9.678;2023-07-09T11:28:37;33.57;38.29
65374;SHT31;52070;53.760;9.678;2023-07-09T11:31:06;33.81;38.91
65374;SHT31;52070;53.760;9.678;2023-07-09T11:33:46;33.85;40.23
65374;SHT31;52070;53.760;9.678;2023-07-09T11:36:24;34.15;39.92
65374;SHT31;52070;53.760;9.678;2023-07-09T11:38:52;34.08;39.29
65374;SHT31;52070;53.760;9.678;2023-07-09T11:41:26;33.60;36.91
65374;SHT31;52070;53.760;9.678;2023-07-09T11:44:05;33.55;38.15
65374;SHT31;52070;53.760;9.678;2023-07-09T11:46:47;33.60;39.76
65374;SHT31;52070;53.760;9.678;2023-07-09T11:49:17;33.49;39.00
65374;SHT31;52070;53.760;9.678;2023-07-09T11:51:48;33.57;39.83
65374;SHT31;52070;53.760;9.678;2023-07-09T11:54:18;33.81;35.74
65374;SHT31;52070;53.760;9.678;2023-07-09T11:56:52;33.81;38.65
65374;SHT31;52070;53.760;9.678;2023-07-09T11:59:19;33.87;38.35
65374;SHT31;52070;53.760;9.678;2023-07-09T12:01:49;33.94;37.87
65374;SHT31;52070;53.760;9.678;2023-07-09T12:04:21;33.93;37.76
65374;SHT31;52070;53.760;9.678;2023-07-09T12:06:53;33.88;34.52
65374;SHT31;52070;53.760;9.678;2023-07-09T12:09:31;34.08;37.14
65374;SHT31;52070;53.760;9.678;2023-07-09T12:11:58;34.38;35.73
65374;SHT31;52070;53.760;9.678;2023-07-09T12:14:26;34.32;34.99
65374;SHT31;52070;53.760;9.678;2023-07-09T12:16:54;34.34;39.72
65374;SHT31;52070;53.760;9.678;2023-07-09T12:19:22;34.22;38.16
65374;SHT31;52070;53.760;9.678;2023-07-09T12:21:53;33.93;38.46
65374;SHT31;52070;53.760;9.678;2023-07-09T12:24:25;33.80;37.62
65374;SHT31;52070;53.760;9.678;2023-07-09T12:26:56;33.35;36.20
65374;SHT31;52070;53.760;9.678;2023-07-09T12:29:25;33.09;37.13
65374;SHT31;52070;53.760;9.678;2023-07-09T12:31:52;32.92;36.53
65374;SHT31;52070;53.760;9.678;2023-07-09T12:34:19;33.10;38.72
65374;SHT31;52070;53.760;9.678;2023-07-09T12:36:49;33.16;38.14
65374;SHT31;52070;53.760;9.678;2023-07-09T12:39:26;33.21;36.60
65374;SHT31;52070;53.760;9.678;2023-07-09T12:41:55;33.29;37.38
65374;SHT31;52070;53.760;9.678;2023-07-09T12:44:24;33.30;39.27
65374;SHT31;52070;53.760;9.678;2023-07-09T12:46:53;33.46;41.18
65374;SHT31;52070;53.760;9.678;2023-07-09T12:49:22;33.68;36.98
65374;SHT31;52070;53.760;9.678;2023-07-09T12:51:49;33.81;36.93
65374;SHT31;52070;53.760;9.678;2023-07-09T12:54:20;33.93;35.74
65374;SHT31;52070;53.760;9.678;2023-07-09T12:56:51;34.00;36.87
65374;SHT31;52070;53.760;9.678;2023-07-09T12:59:20;34.25;37.26
65374;SHT31;52070;53.760;9.678;2023-07-09T13:01:49;34.48;34.87
65374;SHT31;52070;53.760;9.678;2023-07-09T13:04:17;34.49;36.92
65374;SHT31;52070;53.760;9.678;2023-07-09T13:06:45;34.38;35.65
65374;SHT31;52070;53.760;9.678;2023-07-09T13:09:22;34.31;35.75
65374;SHT31;52070;53.760;9.678;2023-07-09T13:11:51;34.14;33.37
65374;SHT31;52070;53.760;9.678;2023-07-09T13:14:20;34.02;38.17
65374;SHT31;52070;53.760;9.678;2023-07-09T13:16:48;34.00;35.16
65374;SHT31;52070;53.760;9.678;2023-07-09T13:19:15;33.93;36.26
65374;SHT31;52070;53.760;9.678;2023-07-09T13:21:43;34.00;35.62
65374;SHT31;52070;53.760;9.678;2023-07-09T13:24:20;34.15;38.08
65374;SHT31;52070;53.760;9.678;2023-07-09T13:26:49;34.24;34.19
65374;SHT31;52070;53.760;9.678;2023-07-09T13:29:18;34.21;38.01
65374;SHT31;52070;53.760;9.678;2023-07-09T13:31:45;34.22;34.89
65374;SHT31;52070;53.760;9.678;2023-07-09T13:34:20;34.19;36.63
65374;SHT31;52070;53.760;9.678;2023-07-09T13:36:48;34.25;34.88
65374;SHT31;52070;53.760;9.678;2023-07-09T13:39:16;34.19;35.60
65374;SHT31;52070;53.760;9.678;2023-07-09T13:41:44;34.32;35.07
65374;SHT31;52070;53.760;9.678;2023-07-09T13:44:14;34.53;35.43
65374;SHT31;52070;53.760;9.678;2023-07-09T13:46:42;34.63;35.03
65374;SHT31;52070;53.760;9.678;2023-07-09T13:49:10;34.52;31.82
65374;SHT31;52070;53.760;9.678;2023-07-09T13:51:40;34.51;37.01
65374;SHT31;52070;53.760;9.678;2023-07-09T13:54:14;34.79;32.35
65374;SHT31;52070;53.760;9.678;2023-07-09T13:56:42;34.62;30.68
65374;SHT31;52070;53.760;9.678;2023-07-09T13:59:15;34.66;31.97
65374;SHT31;52070;53.760;9.678;2023-07-09T14:01:44;34.55;33.65
65374;SHT31;52070;53.760;9.678;2023-07-09T14:04:12;34.52;33.48
65374;SHT31;52070;53.760;9.678;2023-07-09T14:06:40;34.52;30.39
65374;SHT31;52070;53.760;9.678;2023-07-09T14:09:14;34.52;31.30
65374;SHT31;52070;53.760;9.678;2023-07-09T14:11:43;34.36;31.89
65374;SHT31;52070;53.760;9.678;2023-07-09T14:14:16;34.38;30.95
65374;SHT31;52070;53.760;9.678;2023-07-09T14:16:44;34.36;32.21
65374;SHT31;52070;53.760;9.678;2023-07-09T14:19:13;34.35;32.36
65374;SHT31;52070;53.760;9.678;2023-07-09T14:21:43;34.28;31.77
65374;SHT31;52070;53.760;9.678;2023-07-09T14:24:18;34.19;31.21
65374;SHT31;52070;53.760;9.678;2023-07-09T14:26:46;34.22;33.18
65374;SHT31;52070;53.760;9.678;2023-07-09T14:29:15;34.22;32.03
65374;SHT31;52070;53.760;9.678;2023-07-09T14:31:44;34.21;32.09
65374;SHT31;52070;53.760;9.678;2023-07-09T14:34:19;34.25;31.11
65374;SHT31;52070;53.760;9.678;2023-07-09T14:36:46;34.35;32.45
65374;SHT31;52070;53.760;9.678;2023-07-09T14:39:14;34.55;30.55
65374;SHT31;52070;53.760;9.678;2023-07-09T14:41:41;34.62;31.23
65374;SHT31;52070;53.760;9.678;2023-07-09T14:44:22;34.57;31.49
65374;SHT31;52070;53.760;9.678;2023-07-09T14:46:50;34.56;32.91
65374;SHT31;52070;53.760;9.678;2023-07-09T14:49:20;34.52;31.51
65374;SHT31;52070;53.760;9.678;2023-07-09T14:51:48;34.70;32.39
65374;SHT31;52070;53.760;9.678;2023-07-09T14:54:19;34.93;31.13
65374;SHT31;52070;53.760;9.678;2023-07-09T14:56:50;34.99;31.48
65374;SHT31;52070;53.760;9.678;2023-07-09T14:59:19;35.20;31.28
65374;SHT31;52070;53.760;9.678;2023-07-09T15:01:48;35.29;31.98
65374;SHT31;52070;53.760;9.678;2023-07-09T15:04:32;35.25;28.51
65374;SHT31;52070;53.760;9.678;2023-07-09T15:07:02;35.02;31.23
65374;SHT31;52070;53.760;9.678;2023-07-09T15:09:29;34.86;30.88
65374;SHT31;52070;53.760;9.678;2023-07-09T15:11:58;34.87;30.04
65374;SHT31;52070;53.760;9.678;2023-07-09T15:14:27;35.06;31.04
65374;SHT31;52070;53.760;9.678;2023-07-09T15:16:54;35.02;29.97
65374;SHT31;52070;53.760;9.678;2023-07-09T15:19:22;35.02;28.39
65374;SHT31;52070;53.760;9.678;2023-07-09T15:21:50;34.99;28.40
65374;SHT31;52070;53.760;9.678;2023-07-09T15:24:21;34.78;31.55
65374;SHT31;52070;53.760;9.678;2023-07-09T15:26:53;34.60;31.48
65374;SHT31;52070;53.760;9.678;2023-07-09T15:29:21;34.48;29.53
65374;SHT31;52070;53.760;9.678;2023-07-09T15:31:49;34.36;32.11
65374;SHT31;52070;53.760;9.678;2023-07-09T15:34:16;34.26;32.53
65374;SHT31;52070;53.760;9.678;2023-07-09T15:36:47;34.16;32.54
65374;SHT31;52070;53.760;9.678;2023-07-09T15:39:16;34.02;31.82
65374;SHT31;52070;53.760;9.678;2023-07-09T15:41:43;33.81;31.30
65374;SHT31;52070;53.760;9.678;2023-07-09T15:44:11;33.71;32.29
65374;SHT31;52070;53.760;9.678;2023-07-09T15:46:39;33.58;32.14